Terminal Aerodrome Forecast
Issued by NWS Missoula, MT

Home | Current Version | Previous Version | Text Only | Print | Product List | Glossary On
Versions: 1 2 3 4 5 6 7 8 9 10 11 12 13 14 15 16 17 18 19 20
000
FTUS45 KMSO 221018 AAB
TAFGPI
TAF AMD
KGPI 221018Z 2210/2306 VRB03KT 3SM -SN BR FEW005 BKN035 OVC080
     FM221500 VRB03KT 6SM BR FEW005 BKN040
     FM230500 VRB03KT 3SM -SN SCT005 OVC030=

USA.gov is the U.S. government's official web portal to all federal, state and local government web resources and services.